BAW126G LCLK-EGLL
Flight info
| Callsign | BAW126G |
|---|---|
| Flight time | N/A |
| Altitude | 36000 |
| Route | PHA DCT GENOS DCT PEDER DCT EVENO UM601 RDS UL609 MES DCT TSL UN130 TALAS/N0475F380 DCT ENFAR DCT POD DCT INTIT DCT VELIT DCT OKLAX DCT ROTAR DCT BORMI DCT RESIA DCT ELMUR L613 HOC DCT LUL DCT RLP DCT ROTSI DCT KOTUN DCT NINAL DCT ABNUR DCT DIMAL DCT ALESO |
| Aircraft | B77W/H-SDE1E2E3FGHIJ2J3J4J5M1RWXY/LB1D1 |
Departure
| Time | 2026-04-28 17:38 |
|---|---|
| Airport | Larnaca International Airport (LCLK) |
Arrival
| Time | N/A |
|---|---|
| Airport | London Heathrow Airport (EGLL) |
| Time | Latitude | Longitude | Altitude | Speed | Heading |
|---|---|---|---|---|---|
| 2026-04-28 16:24 | 34.86871 | 33.60948 | 30 ft | 0 kts | 45° |
| 2026-04-28 17:25 | 34.86857 | 33.60934 | 31 ft | 4 kts | 24° |
| 2026-04-28 17:26 | 34.86837 | 33.60922 | 31 ft | 3 kts | 31° |
| 2026-04-28 17:26 | 34.86817 | 33.60902 | 31 ft | 4 kts | 65° |
| 2026-04-28 17:26 | 34.86814 | 33.60874 | 31 ft | 4 kts | 118° |
| 2026-04-28 17:26 | 34.86831 | 33.60850 | 31 ft | 4 kts | 135° |
| 2026-04-28 17:27 | 34.86845 | 33.60833 | 31 ft | 0 kts | 135° |
| 2026-04-28 17:30 | 34.86820 | 33.60863 | 31 ft | 4 kts | 135° |
| 2026-04-28 17:30 | 34.86741 | 33.60957 | 28 ft | 17 kts | 135° |
| 2026-04-28 17:30 | 34.86657 | 33.61058 | 28 ft | 17 kts | 133° |
| 2026-04-28 17:31 | 34.86658 | 33.61154 | 30 ft | 11 kts | 51° |
| 2026-04-28 17:31 | 34.86794 | 33.61323 | 26 ft | 19 kts | 45° |
| 2026-04-28 17:32 | 34.86982 | 33.61554 | 26 ft | 19 kts | 45° |
| 2026-04-28 17:32 | 34.87077 | 33.61669 | 29 ft | 19 kts | 45° |
| 2026-04-28 17:32 | 34.87172 | 33.61785 | 30 ft | 19 kts | 45° |
| 2026-04-28 17:32 | 34.87267 | 33.61901 | 26 ft | 19 kts | 45° |
| 2026-04-28 17:33 | 34.87361 | 33.62016 | 28 ft | 19 kts | 45° |
| 2026-04-28 17:33 | 34.87454 | 33.62130 | 24 ft | 19 kts | 45° |
| 2026-04-28 17:33 | 34.87549 | 33.62245 | 24 ft | 19 kts | 45° |
| 2026-04-28 17:33 | 34.87582 | 33.62285 | 22 ft | 20 kts | 45° |
| 2026-04-28 17:34 | 34.87742 | 33.62481 | 26 ft | 20 kts | 45° |
| 2026-04-28 17:34 | 34.87837 | 33.62598 | 29 ft | 20 kts | 45° |
| 2026-04-28 17:34 | 34.87934 | 33.62716 | 29 ft | 20 kts | 45° |
| 2026-04-28 17:34 | 34.88030 | 33.62834 | 29 ft | 20 kts | 45° |
| 2026-04-28 17:35 | 34.88127 | 33.62950 | 29 ft | 20 kts | 45° |
| 2026-04-28 17:35 | 34.88223 | 33.63067 | 25 ft | 20 kts | 45° |
| 2026-04-28 17:35 | 34.88320 | 33.63184 | 23 ft | 20 kts | 45° |
| 2026-04-28 17:35 | 34.88416 | 33.63302 | 24 ft | 20 kts | 45° |
| 2026-04-28 17:36 | 34.88422 | 33.63414 | 27 ft | 14 kts | 119° |
| 2026-04-28 17:36 | 34.88391 | 33.63479 | 29 ft | 14 kts | 121° |
| 2026-04-28 17:36 | 34.88346 | 33.63570 | 24 ft | 12 kts | 163° |
| 2026-04-28 17:36 | 34.88325 | 33.63566 | 24 ft | 12 kts | 201° |
| 2026-04-28 17:37 | 34.88301 | 33.63541 | 27 ft | 12 kts | 226° |
| 2026-04-28 17:37 | 34.88244 | 33.63464 | 21 ft | 14 kts | 227° |
| 2026-04-28 17:37 | 34.88152 | 33.63342 | 24 ft | 51 kts | 227° |
| 2026-04-28 17:37 | 34.87709 | 33.62800 | 29 ft | 127 kts | 226° |
| 2026-04-28 17:38 | 34.86945 | 33.61871 | 88 ft | 179 kts | 225° |
| 2026-04-28 17:38 | 34.86058 | 33.60800 | 812 ft | 178 kts | 224° |
| 2026-04-28 17:38 | 34.85177 | 33.59737 | 1619 ft | 179 kts | 225° |
| 2026-04-28 17:38 | 34.84281 | 33.58630 | 2188 ft | 190 kts | 227° |
| 2026-04-28 17:39 | 34.83321 | 33.57369 | 2445 ft | 216 kts | 229° |
| 2026-04-28 17:39 | 34.82247 | 33.55939 | 2719 ft | 242 kts | 228° |
| 2026-04-28 17:39 | 34.79868 | 33.52823 | 4076 ft | 259 kts | 228° |
| 2026-04-28 17:40 | 34.78619 | 33.51204 | 4866 ft | 265 kts | 229° |
| 2026-04-28 17:40 | 34.77357 | 33.49576 | 5762 ft | 266 kts | 230° |
| 2026-04-28 17:40 | 34.76075 | 33.47922 | 6580 ft | 271 kts | 230° |
| 2026-04-28 17:40 | 34.74760 | 33.46229 | 7333 ft | 275 kts | 229° |
| 2026-04-28 17:41 | 34.73457 | 33.44557 | 8132 ft | 278 kts | 228° |
| 2026-04-28 17:41 | 34.72110 | 33.42829 | 8917 ft | 283 kts | 228° |
| 2026-04-28 17:41 | 34.70743 | 33.41081 | 9689 ft | 286 kts | 229° |
| 2026-04-28 17:41 | 34.69358 | 33.39308 | 10400 ft | 292 kts | 230° |
| 2026-04-28 17:42 | 34.68176 | 33.37273 | 10643 ft | 305 kts | 252° |
| 2026-04-28 17:42 | 34.67907 | 33.34655 | 10826 ft | 323 kts | 274° |
| 2026-04-28 17:42 | 34.68068 | 33.31833 | 11039 ft | 348 kts | 275° |
| 2026-04-28 17:42 | 34.68221 | 33.28819 | 11511 ft | 364 kts | 274° |
| 2026-04-28 17:43 | 34.68364 | 33.25700 | 12359 ft | 371 kts | 274° |
| 2026-04-28 17:43 | 34.68499 | 33.22570 | 13432 ft | 375 kts | 274° |
| 2026-04-28 17:43 | 34.68629 | 33.19387 | 14398 ft | 378 kts | 274° |
| 2026-04-28 17:43 | 34.68755 | 33.16217 | 15267 ft | 383 kts | 274° |
| 2026-04-28 17:44 | 34.68884 | 33.12960 | 16252 ft | 385 kts | 273° |
| 2026-04-28 17:44 | 34.69011 | 33.09690 | 17081 ft | 392 kts | 273° |
| 2026-04-28 17:44 | 34.69141 | 33.06352 | 17922 ft | 398 kts | 273° |
| 2026-04-28 17:44 | 34.69272 | 33.02969 | 18675 ft | 404 kts | 273° |
| 2026-04-28 17:45 | 34.69403 | 32.99550 | 19459 ft | 407 kts | 273° |
| 2026-04-28 17:45 | 34.69534 | 32.96091 | 20196 ft | 412 kts | 273° |
| 2026-04-28 17:45 | 34.69666 | 32.92603 | 20896 ft | 418 kts | 273° |
| 2026-04-28 17:45 | 34.69799 | 32.89060 | 21634 ft | 421 kts | 273° |
| 2026-04-28 17:46 | 34.69933 | 32.85483 | 22373 ft | 426 kts | 273° |
| 2026-04-28 17:46 | 34.70066 | 32.81860 | 23051 ft | 431 kts | 273° |
| 2026-04-28 17:46 | 34.70201 | 32.78196 | 23697 ft | 436 kts | 272° |
| 2026-04-28 17:46 | 34.70336 | 32.74485 | 24275 ft | 440 kts | 272° |
| 2026-04-28 17:47 | 34.70469 | 32.70808 | 24872 ft | 443 kts | 272° |
| 2026-04-28 17:47 | 34.70606 | 32.67048 | 25460 ft | 446 kts | 272° |
| 2026-04-28 17:47 | 34.70744 | 32.63262 | 26023 ft | 449 kts | 272° |
| 2026-04-28 17:47 | 34.70836 | 32.60745 | 26380 ft | 452 kts | 272° |
| 2026-04-28 17:48 | 34.71023 | 32.55596 | 27078 ft | 457 kts | 272° |
| 2026-04-28 17:48 | 34.71160 | 32.51741 | 27604 ft | 460 kts | 272° |
| 2026-04-28 17:48 | 34.71214 | 32.47869 | 28101 ft | 463 kts | 269° |
| 2026-04-28 17:48 | 34.71049 | 32.43897 | 28591 ft | 466 kts | 266° |
| 2026-04-28 17:49 | 34.70793 | 32.40014 | 29043 ft | 469 kts | 265° |
| 2026-04-28 17:49 | 34.70511 | 32.35997 | 29458 ft | 472 kts | 266° |
| 2026-04-28 17:49 | 34.70249 | 32.32059 | 29924 ft | 473 kts | 266° |
| 2026-04-28 17:49 | 34.70007 | 32.28073 | 30316 ft | 474 kts | 266° |
| 2026-04-28 17:50 | 34.69781 | 32.24079 | 30773 ft | 473 kts | 266° |
| 2026-04-28 17:50 | 34.69565 | 32.20105 | 31274 ft | 470 kts | 267° |
| 2026-04-28 17:50 | 34.69351 | 32.16129 | 31773 ft | 468 kts | 267° |
| 2026-04-28 17:50 | 34.69137 | 32.12184 | 32235 ft | 467 kts | 267° |
| 2026-04-28 17:51 | 34.68922 | 32.08285 | 32668 ft | 466 kts | 267° |
| 2026-04-28 17:51 | 34.68706 | 32.04375 | 33117 ft | 464 kts | 267° |
| 2026-04-28 17:51 | 34.68486 | 32.00455 | 33577 ft | 463 kts | 267° |
| 2026-04-28 17:51 | 34.68270 | 31.96558 | 33999 ft | 460 kts | 268° |
| 2026-04-28 17:52 | 34.68378 | 31.92680 | 34257 ft | 460 kts | 278° |
| 2026-04-28 17:52 | 34.69072 | 31.88889 | 34567 ft | 459 kts | 287° |
| 2026-04-28 17:52 | 34.71744 | 31.81878 | 35225 ft | 458 kts | 300° |
| 2026-04-28 17:53 | 34.73395 | 31.78562 | 35538 ft | 458 kts | 300° |
| 2026-04-28 17:53 | 34.75050 | 31.75262 | 35810 ft | 458 kts | 300° |
| 2026-04-28 17:53 | 34.78367 | 31.68583 | 35929 ft | 462 kts | 300° |
| 2026-04-28 17:54 | 34.81640 | 31.61883 | 35948 ft | 457 kts | 299° |
| 2026-04-28 17:54 | 34.84844 | 31.55271 | 35953 ft | 455 kts | 299° |
| 2026-04-28 17:55 | 34.88050 | 31.48635 | 35945 ft | 454 kts | 299° |
| 2026-04-28 17:55 | 34.91256 | 31.41990 | 35950 ft | 455 kts | 299° |
| 2026-04-28 17:56 | 34.94459 | 31.35342 | 35945 ft | 456 kts | 299° |
| 2026-04-28 17:56 | 34.97673 | 31.28659 | 35945 ft | 456 kts | 299° |
| 2026-04-28 17:57 | 35.00888 | 31.21959 | 35930 ft | 457 kts | 299° |
| 2026-04-28 17:57 | 35.04082 | 31.15290 | 35942 ft | 458 kts | 299° |
| 2026-04-28 17:58 | 35.07293 | 31.08575 | 35945 ft | 458 kts | 299° |
| 2026-04-28 17:58 | 35.10503 | 31.01845 | 35936 ft | 459 kts | 299° |
| 2026-04-28 17:59 | 35.13716 | 30.95099 | 35933 ft | 459 kts | 299° |
| 2026-04-28 17:59 | 35.16968 | 30.88384 | 35932 ft | 459 kts | 303° |
| 2026-04-28 18:00 | 35.20942 | 30.82257 | 35936 ft | 460 kts | 312° |
| 2026-04-28 18:00 | 35.25352 | 30.76565 | 35932 ft | 461 kts | 312° |
| 2026-04-28 18:01 | 35.29757 | 30.70861 | 35931 ft | 460 kts | 312° |
| 2026-04-28 18:01 | 35.34114 | 30.65169 | 35931 ft | 460 kts | 311° |
| 2026-04-28 18:02 | 35.38484 | 30.59431 | 35929 ft | 460 kts | 311° |
| 2026-04-28 18:02 | 35.42849 | 30.53687 | 35927 ft | 460 kts | 311° |
| 2026-04-28 18:03 | 35.47219 | 30.47928 | 35940 ft | 460 kts | 311° |
| 2026-04-28 18:03 | 35.51557 | 30.42202 | 35930 ft | 460 kts | 311° |
| 2026-04-28 18:04 | 35.55929 | 30.36422 | 35927 ft | 460 kts | 311° |
| 2026-04-28 18:04 | 35.60286 | 30.30651 | 35927 ft | 460 kts | 311° |
| 2026-04-28 18:05 | 35.63905 | 30.25850 | 35924 ft | 460 kts | 311° |
| 2026-04-28 18:05 | 35.68964 | 30.19127 | 35922 ft | 460 kts | 311° |
| 2026-04-28 18:06 | 35.73311 | 30.13340 | 35924 ft | 460 kts | 311° |
| 2026-04-28 18:06 | 35.77649 | 30.07555 | 35919 ft | 460 kts | 311° |
| 2026-04-28 18:07 | 35.81771 | 30.01546 | 35931 ft | 458 kts | 302° |
| 2026-04-28 18:07 | 35.84801 | 29.94647 | 35926 ft | 458 kts | 292° |
| 2026-04-28 18:08 | 35.86871 | 29.87232 | 35928 ft | 457 kts | 288° |
| 2026-04-28 18:08 | 35.88845 | 29.79767 | 35920 ft | 458 kts | 288° |
| 2026-04-28 18:09 | 35.90840 | 29.72366 | 35920 ft | 457 kts | 288° |
| 2026-04-28 18:09 | 35.92862 | 29.64921 | 35920 ft | 457 kts | 288° |
| 2026-04-28 18:10 | 35.94877 | 29.57483 | 35923 ft | 457 kts | 288° |
| 2026-04-28 18:10 | 35.96883 | 29.50046 | 35924 ft | 456 kts | 288° |
| 2026-04-28 18:11 | 35.98881 | 29.42609 | 35922 ft | 456 kts | 288° |
| 2026-04-28 18:11 | 36.00876 | 29.35165 | 35923 ft | 456 kts | 288° |
| 2026-04-28 18:12 | 36.02851 | 29.27771 | 35924 ft | 455 kts | 288° |
| 2026-04-28 18:12 | 36.04831 | 29.20340 | 35929 ft | 455 kts | 288° |
| 2026-04-28 18:13 | 36.06807 | 29.12906 | 35925 ft | 455 kts | 288° |
| 2026-04-28 18:13 | 36.08774 | 29.05481 | 35926 ft | 454 kts | 288° |
| 2026-04-28 18:14 | 36.10736 | 28.98056 | 35926 ft | 454 kts | 288° |
| 2026-04-28 18:14 | 36.12691 | 28.90633 | 35928 ft | 454 kts | 288° |
| 2026-04-28 18:15 | 36.14630 | 28.83251 | 35923 ft | 454 kts | 288° |
| 2026-04-28 18:15 | 36.16579 | 28.75814 | 35922 ft | 453 kts | 288° |
| 2026-04-28 18:16 | 36.18438 | 28.68695 | 35924 ft | 453 kts | 288° |
| 2026-04-28 18:16 | 36.20373 | 28.61265 | 35922 ft | 453 kts | 288° |
| 2026-04-28 18:17 | 36.22298 | 28.53856 | 35925 ft | 454 kts | 288° |
| 2026-04-28 18:17 | 36.24226 | 28.46411 | 35923 ft | 454 kts | 288° |
| 2026-04-28 18:18 | 36.26145 | 28.38951 | 35924 ft | 454 kts | 288° |
| 2026-04-28 18:18 | 36.27735 | 28.32756 | 35922 ft | 454 kts | 288° |
| 2026-04-28 18:19 | 36.29973 | 28.24011 | 35928 ft | 455 kts | 288° |
| 2026-04-28 18:19 | 36.31883 | 28.16530 | 35929 ft | 455 kts | 288° |
| 2026-04-28 18:20 | 36.34329 | 28.09382 | 35966 ft | 454 kts | 301° |
| 2026-04-28 18:20 | 36.38189 | 28.03177 | 35960 ft | 455 kts | 315° |
| 2026-04-28 18:21 | 36.42845 | 27.97824 | 35967 ft | 455 kts | 316° |
| 2026-04-28 18:21 | 36.47526 | 27.92525 | 35960 ft | 455 kts | 316° |
| 2026-04-28 18:22 | 36.52185 | 27.87181 | 35953 ft | 455 kts | 316° |
| 2026-04-28 18:22 | 36.56038 | 27.82722 | 35951 ft | 455 kts | 316° |
| 2026-04-28 18:23 | 36.61420 | 27.76465 | 35940 ft | 455 kts | 315° |
| 2026-04-28 18:23 | 36.65273 | 27.71977 | 35940 ft | 456 kts | 316° |
| 2026-04-28 18:24 | 36.69146 | 27.67460 | 35937 ft | 456 kts | 316° |
| 2026-04-28 18:24 | 36.74531 | 27.61173 | 35935 ft | 456 kts | 316° |
| 2026-04-28 18:25 | 36.79155 | 27.55764 | 35938 ft | 456 kts | 316° |
| 2026-04-28 18:26 | 36.86098 | 27.47623 | 35941 ft | 456 kts | 315° |
| 2026-04-28 18:26 | 36.90718 | 27.42194 | 35945 ft | 456 kts | 316° |
| 2026-04-28 18:27 | 36.95336 | 27.36758 | 35951 ft | 456 kts | 316° |
| 2026-04-28 18:27 | 36.99947 | 27.31320 | 35950 ft | 456 kts | 316° |
| 2026-04-28 18:28 | 37.04569 | 27.25860 | 35947 ft | 456 kts | 316° |
| 2026-04-28 18:28 | 37.09197 | 27.20384 | 35959 ft | 462 kts | 316° |
| 2026-04-28 18:29 | 37.13875 | 27.14837 | 35959 ft | 469 kts | 316° |
| 2026-04-28 18:29 | 37.18656 | 27.09160 | 35964 ft | 475 kts | 316° |
| 2026-04-28 18:30 | 37.23481 | 27.03419 | 35958 ft | 479 kts | 316° |
| 2026-04-28 18:30 | 37.28329 | 26.97640 | 35970 ft | 481 kts | 316° |
| 2026-04-28 18:31 | 37.33182 | 26.91844 | 35960 ft | 481 kts | 316° |
| 2026-04-28 18:31 | 37.38008 | 26.86070 | 35966 ft | 480 kts | 316° |
| 2026-04-28 18:32 | 37.42948 | 26.80423 | 35967 ft | 479 kts | 319° |
| 2026-04-28 18:32 | 37.48021 | 26.75008 | 35981 ft | 477 kts | 319° |
| 2026-04-28 18:33 | 37.53085 | 26.69597 | 35988 ft | 476 kts | 319° |
| 2026-04-28 18:33 | 37.58107 | 26.64176 | 35980 ft | 475 kts | 319° |
| 2026-04-28 18:34 | 37.63085 | 26.58779 | 35984 ft | 474 kts | 319° |
| 2026-04-28 18:34 | 37.68090 | 26.53349 | 35984 ft | 474 kts | 319° |
| 2026-04-28 18:35 | 37.73097 | 26.47893 | 35997 ft | 473 kts | 319° |
| 2026-04-28 18:35 | 37.78044 | 26.42481 | 35996 ft | 473 kts | 319° |
| 2026-04-28 18:36 | 37.83030 | 26.37018 | 36017 ft | 473 kts | 319° |
| 2026-04-28 18:36 | 37.88000 | 26.31568 | 36010 ft | 473 kts | 319° |
| 2026-04-28 18:37 | 37.92988 | 26.26107 | 36006 ft | 473 kts | 319° |
| 2026-04-28 18:37 | 37.97969 | 26.20646 | 36008 ft | 473 kts | 319° |
| 2026-04-28 18:38 | 38.02920 | 26.15204 | 36013 ft | 473 kts | 319° |
| 2026-04-28 18:38 | 38.07885 | 26.09737 | 36020 ft | 472 kts | 319° |
| 2026-04-28 18:39 | 38.12853 | 26.04260 | 36029 ft | 472 kts | 319° |
| 2026-04-28 18:39 | 38.17816 | 25.98778 | 36022 ft | 472 kts | 319° |
| 2026-04-28 18:40 | 38.22774 | 25.93292 | 36019 ft | 472 kts | 319° |
| 2026-04-28 18:40 | 38.27628 | 25.87644 | 36038 ft | 472 kts | 316° |
| 2026-04-28 18:41 | 38.32283 | 25.81752 | 36028 ft | 472 kts | 315° |
| 2026-04-28 18:41 | 38.36881 | 25.75874 | 36039 ft | 471 kts | 315° |
| 2026-04-28 18:42 | 38.41529 | 25.69952 | 36047 ft | 471 kts | 315° |
| 2026-04-28 18:42 | 38.46167 | 25.64055 | 36042 ft | 471 kts | 315° |
| 2026-04-28 18:43 | 38.50812 | 25.58144 | 36042 ft | 470 kts | 315° |
| 2026-04-28 18:43 | 38.55443 | 25.52240 | 36050 ft | 470 kts | 315° |
| 2026-04-28 18:44 | 38.60039 | 25.46368 | 36057 ft | 470 kts | 315° |
| 2026-04-28 18:44 | 38.66971 | 25.37489 | 36060 ft | 469 kts | 315° |
| 2026-04-28 18:45 | 38.71561 | 25.31596 | 36058 ft | 469 kts | 315° |
| 2026-04-28 18:45 | 38.76183 | 25.25649 | 36067 ft | 469 kts | 315° |
| 2026-04-28 18:46 | 38.80787 | 25.19716 | 36069 ft | 469 kts | 315° |
| 2026-04-28 18:46 | 38.85366 | 25.13801 | 36073 ft | 469 kts | 315° |
| 2026-04-28 18:47 | 38.89964 | 25.07851 | 36074 ft | 469 kts | 315° |
| 2026-04-28 18:47 | 38.94567 | 25.01884 | 36075 ft | 469 kts | 315° |
| 2026-04-28 18:48 | 38.99154 | 24.95925 | 36069 ft | 467 kts | 315° |
| 2026-04-28 18:48 | 39.03727 | 24.89973 | 36090 ft | 467 kts | 314° |
| 2026-04-28 18:49 | 39.06755 | 24.86025 | 36082 ft | 468 kts | 314° |
| 2026-04-28 18:49 | 39.12839 | 24.78079 | 36082 ft | 467 kts | 314° |
| 2026-04-28 18:50 | 39.17412 | 24.72090 | 36086 ft | 467 kts | 314° |
| 2026-04-28 18:50 | 39.21971 | 24.66111 | 36090 ft | 467 kts | 314° |
| 2026-04-28 18:51 | 39.26524 | 24.60125 | 36092 ft | 467 kts | 314° |
| 2026-04-28 18:51 | 39.31073 | 24.54135 | 36097 ft | 467 kts | 314° |
| 2026-04-28 18:52 | 39.35602 | 24.48158 | 36095 ft | 467 kts | 314° |
| 2026-04-28 18:52 | 39.40152 | 24.42143 | 36091 ft | 467 kts | 314° |
| 2026-04-28 18:53 | 39.44711 | 24.36102 | 36082 ft | 467 kts | 314° |
| 2026-04-28 18:53 | 39.49218 | 24.30119 | 36088 ft | 467 kts | 314° |
| 2026-04-28 18:54 | 39.53768 | 24.24067 | 36094 ft | 467 kts | 314° |
| 2026-04-28 18:54 | 39.58307 | 24.18017 | 36093 ft | 468 kts | 314° |
| 2026-04-28 18:55 | 39.62076 | 24.12985 | 36101 ft | 468 kts | 314° |
| 2026-04-28 18:55 | 39.67343 | 24.05938 | 36082 ft | 467 kts | 313° |
| 2026-04-28 18:56 | 39.71872 | 23.99866 | 36094 ft | 467 kts | 313° |
| 2026-04-28 18:56 | 39.76389 | 23.93796 | 36092 ft | 467 kts | 313° |
| 2026-04-28 18:57 | 39.80903 | 23.87720 | 36087 ft | 466 kts | 313° |
| 2026-04-28 18:57 | 39.85410 | 23.81639 | 36090 ft | 466 kts | 313° |
| 2026-04-28 18:58 | 39.89881 | 23.75596 | 36094 ft | 466 kts | 313° |
| 2026-04-28 18:58 | 39.94377 | 23.69507 | 36091 ft | 466 kts | 313° |
| 2026-04-28 18:59 | 39.98870 | 23.63410 | 36089 ft | 465 kts | 313° |
| 2026-04-28 18:59 | 40.03345 | 23.57324 | 36085 ft | 464 kts | 313° |
| 2026-04-28 19:00 | 40.07781 | 23.51279 | 36087 ft | 464 kts | 313° |
| 2026-04-28 19:00 | 40.12241 | 23.45190 | 36088 ft | 463 kts | 313° |
| 2026-04-28 19:01 | 40.16698 | 23.39092 | 36075 ft | 464 kts | 313° |
| 2026-04-28 19:01 | 40.21149 | 23.32989 | 36093 ft | 464 kts | 313° |
| 2026-04-28 19:02 | 40.25611 | 23.26859 | 36090 ft | 465 kts | 313° |
| 2026-04-28 19:02 | 40.30071 | 23.20719 | 36089 ft | 465 kts | 313° |
| 2026-04-28 19:03 | 40.34500 | 23.14609 | 36097 ft | 465 kts | 313° |
| 2026-04-28 19:03 | 40.38954 | 23.08451 | 36092 ft | 465 kts | 313° |
| 2026-04-28 19:04 | 40.43404 | 23.02289 | 36101 ft | 465 kts | 313° |
| 2026-04-28 19:04 | 40.47655 | 22.95897 | 36107 ft | 464 kts | 307° |
| 2026-04-28 19:05 | 40.51576 | 22.89136 | 36106 ft | 464 kts | 307° |
| 2026-04-28 19:05 | 40.55491 | 22.82369 | 36100 ft | 464 kts | 307° |
| 2026-04-28 19:06 | 40.58751 | 22.76760 | 36090 ft | 464 kts | 307° |
| 2026-04-28 19:06 | 40.63314 | 22.68912 | 36086 ft | 464 kts | 307° |
| 2026-04-28 19:07 | 40.67237 | 22.62150 | 36076 ft | 464 kts | 307° |
| 2026-04-28 19:07 | 40.71146 | 22.55394 | 36067 ft | 463 kts | 307° |
| 2026-04-28 19:08 | 40.74394 | 22.49770 | 36066 ft | 463 kts | 307° |
| 2026-04-28 19:08 | 40.78298 | 22.43000 | 36070 ft | 463 kts | 307° |
| 2026-04-28 19:09 | 40.82207 | 22.36229 | 36069 ft | 464 kts | 307° |
| 2026-04-28 19:09 | 40.86755 | 22.28338 | 36063 ft | 464 kts | 307° |
| 2026-04-28 19:10 | 40.90024 | 22.22649 | 36068 ft | 464 kts | 307° |
| 2026-04-28 19:10 | 40.93924 | 22.15848 | 36062 ft | 464 kts | 307° |
| 2026-04-28 19:11 | 40.97798 | 22.09078 | 36059 ft | 464 kts | 306° |
| 2026-04-28 19:11 | 41.01694 | 22.02253 | 36063 ft | 464 kts | 306° |
| 2026-04-28 19:12 | 41.05581 | 21.95432 | 36059 ft | 464 kts | 306° |
| 2026-04-28 19:12 | 41.09402 | 21.88602 | 36047 ft | 464 kts | 304° |
| 2026-04-28 19:13 | 41.13019 | 21.81502 | 36056 ft | 464 kts | 303° |
| 2026-04-28 19:13 | 41.16584 | 21.74362 | 36057 ft | 463 kts | 303° |
| 2026-04-28 19:14 | 41.20170 | 21.67243 | 36059 ft | 463 kts | 303° |
| 2026-04-28 19:14 | 41.23771 | 21.60132 | 36065 ft | 463 kts | 303° |
| 2026-04-28 19:15 | 41.27351 | 21.53062 | 36059 ft | 464 kts | 303° |
| 2026-04-28 19:15 | 41.30367 | 21.47091 | 36054 ft | 463 kts | 303° |
| 2026-04-28 19:16 | 41.34536 | 21.38815 | 36059 ft | 463 kts | 303° |
| 2026-04-28 19:16 | 41.38112 | 21.31696 | 36058 ft | 463 kts | 303° |
| 2026-04-28 19:17 | 41.41697 | 21.24545 | 36058 ft | 463 kts | 303° |
| 2026-04-28 19:17 | 41.45263 | 21.17413 | 36077 ft | 462 kts | 303° |
| 2026-04-28 19:18 | 41.48829 | 21.10266 | 36053 ft | 462 kts | 303° |
| 2026-04-28 19:18 | 41.52367 | 21.03157 | 36053 ft | 462 kts | 303° |
| 2026-04-28 19:19 | 41.55923 | 20.95996 | 36063 ft | 462 kts | 303° |
| 2026-04-28 19:19 | 41.59466 | 20.88844 | 36085 ft | 462 kts | 303° |
| 2026-04-28 19:20 | 41.63002 | 20.81689 | 36092 ft | 462 kts | 303° |
| 2026-04-28 19:20 | 41.66540 | 20.74514 | 36090 ft | 462 kts | 303° |
| 2026-04-28 19:21 | 41.70072 | 20.67333 | 36089 ft | 462 kts | 303° |
| 2026-04-28 19:21 | 41.73605 | 20.60134 | 36109 ft | 462 kts | 303° |
| 2026-04-28 19:22 | 41.76537 | 20.54146 | 36114 ft | 462 kts | 303° |
| 2026-04-28 19:22 | 41.80647 | 20.45775 | 36084 ft | 463 kts | 303° |
| 2026-04-28 19:23 | 41.84191 | 20.38567 | 36085 ft | 462 kts | 303° |
| 2026-04-28 19:23 | 41.87731 | 20.31344 | 36087 ft | 462 kts | 303° |
| 2026-04-28 19:24 | 41.91257 | 20.24127 | 36110 ft | 462 kts | 303° |
| 2026-04-28 19:24 | 41.94760 | 20.16940 | 36074 ft | 462 kts | 303° |
| 2026-04-28 19:25 | 41.98270 | 20.09722 | 36098 ft | 460 kts | 303° |
| 2026-04-28 19:25 | 42.01779 | 20.02488 | 36091 ft | 462 kts | 303° |
| 2026-04-28 19:26 | 42.05281 | 19.95248 | 36089 ft | 462 kts | 302° |
| 2026-04-28 19:26 | 42.08788 | 19.87984 | 36069 ft | 463 kts | 302° |
| 2026-04-28 19:27 | 42.12291 | 19.80709 | 36093 ft | 463 kts | 302° |
| 2026-04-28 19:27 | 42.15793 | 19.73417 | 36082 ft | 462 kts | 302° |
| 2026-04-28 19:28 | 42.19287 | 19.66130 | 36065 ft | 462 kts | 302° |
| 2026-04-28 19:28 | 42.22749 | 19.58890 | 36071 ft | 462 kts | 302° |
| 2026-04-28 19:29 | 42.25651 | 19.52803 | 36047 ft | 462 kts | 302° |
| 2026-04-28 19:29 | 42.29711 | 19.44269 | 36055 ft | 462 kts | 302° |
| 2026-04-28 19:30 | 42.33188 | 19.36944 | 36040 ft | 462 kts | 302° |
| 2026-04-28 19:30 | 42.36600 | 19.29736 | 36038 ft | 461 kts | 302° |
| 2026-04-28 19:31 | 42.40054 | 19.22400 | 36053 ft | 461 kts | 302° |
| 2026-04-28 19:31 | 42.43428 | 19.15083 | 36047 ft | 461 kts | 301° |
| 2026-04-28 19:32 | 42.46811 | 19.07702 | 36046 ft | 461 kts | 301° |
| 2026-04-28 19:32 | 42.50193 | 19.00319 | 36053 ft | 460 kts | 301° |
| 2026-04-28 19:33 | 42.53570 | 18.92939 | 36051 ft | 461 kts | 301° |
| 2026-04-28 19:33 | 42.56950 | 18.85537 | 36081 ft | 462 kts | 301° |
| 2026-04-28 19:34 | 42.58636 | 18.81838 | 36484 ft | 456 kts | 301° |
| 2026-04-28 19:34 | 42.60285 | 18.78216 | 37077 ft | 448 kts | 301° |
| 2026-04-28 19:34 | 42.61916 | 18.74630 | 37651 ft | 442 kts | 301° |
| 2026-04-28 19:34 | 42.63524 | 18.71088 | 38086 ft | 438 kts | 301° |
| 2026-04-28 19:35 | 42.66705 | 18.64069 | 38070 ft | 439 kts | 301° |
| 2026-04-28 19:35 | 42.69896 | 18.57012 | 38095 ft | 436 kts | 301° |
| 2026-04-28 19:36 | 42.73066 | 18.49986 | 38083 ft | 436 kts | 301° |
| 2026-04-28 19:36 | 42.76224 | 18.42967 | 38071 ft | 435 kts | 301° |
| 2026-04-28 19:37 | 42.78847 | 18.37124 | 38073 ft | 435 kts | 301° |
| 2026-04-28 19:37 | 42.82529 | 18.28905 | 38077 ft | 435 kts | 300° |
| 2026-04-28 19:38 | 42.85683 | 18.21846 | 38075 ft | 436 kts | 300° |
| 2026-04-28 19:38 | 42.88833 | 18.14778 | 38077 ft | 437 kts | 300° |
| 2026-04-28 19:39 | 42.91994 | 18.07671 | 38064 ft | 438 kts | 300° |
| 2026-04-28 19:39 | 42.95450 | 18.00826 | 38074 ft | 439 kts | 306° |
| 2026-04-28 19:40 | 42.99113 | 17.94213 | 38067 ft | 439 kts | 306° |
| 2026-04-28 19:40 | 43.02793 | 17.87545 | 38042 ft | 440 kts | 306° |
| 2026-04-28 19:41 | 43.06457 | 17.80853 | 38050 ft | 439 kts | 305° |
| 2026-04-28 19:41 | 43.10106 | 17.74157 | 38074 ft | 439 kts | 305° |
| 2026-04-28 19:42 | 43.13751 | 17.67455 | 38069 ft | 438 kts | 305° |
| 2026-04-28 19:42 | 43.16772 | 17.61886 | 38069 ft | 438 kts | 305° |
| 2026-04-28 19:43 | 43.21017 | 17.54048 | 38071 ft | 437 kts | 305° |
| 2026-04-28 19:43 | 43.24640 | 17.47340 | 38072 ft | 437 kts | 305° |
| 2026-04-28 19:44 | 43.28256 | 17.40631 | 38094 ft | 437 kts | 305° |
| 2026-04-28 19:44 | 43.31870 | 17.33910 | 38061 ft | 437 kts | 305° |
| 2026-04-28 19:45 | 43.35417 | 17.27205 | 38074 ft | 435 kts | 302° |
| 2026-04-28 19:45 | 43.38516 | 17.20048 | 38081 ft | 437 kts | 299° |
| 2026-04-28 19:46 | 43.41587 | 17.12754 | 38104 ft | 444 kts | 299° |
| 2026-04-28 19:46 | 43.44712 | 17.05354 | 38088 ft | 450 kts | 299° |
| 2026-04-28 19:47 | 43.47782 | 16.98095 | 38096 ft | 455 kts | 299° |
| 2026-04-28 19:47 | 43.50977 | 16.90530 | 38092 ft | 458 kts | 299° |
| 2026-04-28 19:48 | 43.54189 | 16.82906 | 38095 ft | 460 kts | 299° |
| 2026-04-28 19:48 | 43.57400 | 16.75263 | 38085 ft | 461 kts | 299° |
| 2026-04-28 19:49 | 43.60587 | 16.67656 | 38055 ft | 461 kts | 299° |
| 2026-04-28 19:49 | 43.63786 | 16.60000 | 38080 ft | 460 kts | 299° |
| 2026-04-28 19:50 | 43.68570 | 16.48511 | 38058 ft | 459 kts | 299° |
| 2026-04-28 19:51 | 43.71744 | 16.40863 | 38081 ft | 459 kts | 299° |
| 2026-04-28 19:51 | 43.74916 | 16.33200 | 38064 ft | 458 kts | 299° |
| 2026-04-28 19:52 | 43.78069 | 16.25560 | 38061 ft | 458 kts | 299° |
| 2026-04-28 19:52 | 43.80693 | 16.19188 | 38068 ft | 457 kts | 299° |
| 2026-04-28 19:53 | 43.83844 | 16.11520 | 38062 ft | 458 kts | 299° |
| 2026-04-28 19:53 | 43.87011 | 16.03855 | 38068 ft | 458 kts | 301° |
| 2026-04-28 19:54 | 43.90482 | 15.96520 | 38048 ft | 458 kts | 303° |
| 2026-04-28 19:54 | 43.94047 | 15.89180 | 38066 ft | 458 kts | 303° |
| 2026-04-28 19:55 | 43.97595 | 15.81831 | 38065 ft | 457 kts | 303° |
| 2026-04-28 19:55 | 44.01120 | 15.74475 | 38069 ft | 457 kts | 302° |
| 2026-04-28 19:56 | 44.04634 | 15.67107 | 38069 ft | 457 kts | 302° |
| 2026-04-28 19:56 | 44.08127 | 15.59761 | 38072 ft | 458 kts | 302° |
| 2026-04-28 19:57 | 44.11640 | 15.52356 | 38079 ft | 458 kts | 302° |
| 2026-04-28 19:57 | 44.15151 | 15.44936 | 38086 ft | 459 kts | 302° |
| 2026-04-28 19:58 | 44.18662 | 15.37498 | 38087 ft | 458 kts | 302° |
| 2026-04-28 19:58 | 44.22162 | 15.30065 | 38084 ft | 458 kts | 302° |
| 2026-04-28 19:59 | 44.25631 | 15.22679 | 38083 ft | 458 kts | 302° |
| 2026-04-28 19:59 | 44.29122 | 15.15228 | 38075 ft | 458 kts | 302° |
| 2026-04-28 20:00 | 44.32605 | 15.07773 | 38033 ft | 457 kts | 302° |
| 2026-04-28 20:00 | 44.36060 | 15.00358 | 38059 ft | 457 kts | 302° |
| 2026-04-28 20:01 | 44.39530 | 14.92893 | 38061 ft | 458 kts | 302° |
| 2026-04-28 20:01 | 44.42999 | 14.85411 | 38054 ft | 458 kts | 302° |
| 2026-04-28 20:02 | 44.46458 | 14.77932 | 38055 ft | 457 kts | 302° |
| 2026-04-28 20:02 | 44.49910 | 14.70448 | 38059 ft | 457 kts | 302° |
| 2026-04-28 20:03 | 44.53333 | 14.63007 | 38054 ft | 456 kts | 302° |
| 2026-04-28 20:03 | 44.56763 | 14.55531 | 38054 ft | 456 kts | 302° |
| 2026-04-28 20:04 | 44.60196 | 14.48030 | 38059 ft | 456 kts | 301° |
| 2026-04-28 20:04 | 44.63594 | 14.40585 | 38060 ft | 456 kts | 301° |
| 2026-04-28 20:05 | 44.67012 | 14.33078 | 38062 ft | 456 kts | 301° |
| 2026-04-28 20:05 | 44.70432 | 14.25547 | 38065 ft | 456 kts | 301° |
| 2026-04-28 20:06 | 44.73838 | 14.18025 | 38066 ft | 455 kts | 301° |
| 2026-04-28 20:06 | 44.77236 | 14.10503 | 38058 ft | 455 kts | 301° |
| 2026-04-28 20:07 | 44.80628 | 14.02973 | 38077 ft | 455 kts | 301° |
| 2026-04-28 20:07 | 44.83993 | 13.95485 | 38077 ft | 455 kts | 301° |
| 2026-04-28 20:08 | 44.87375 | 13.87938 | 38076 ft | 455 kts | 301° |
| 2026-04-28 20:08 | 44.90761 | 13.80361 | 38065 ft | 456 kts | 301° |
| 2026-04-28 20:09 | 44.94145 | 13.72771 | 38090 ft | 456 kts | 301° |
| 2026-04-28 20:09 | 44.97520 | 13.65180 | 38076 ft | 456 kts | 301° |
| 2026-04-28 20:10 | 45.00866 | 13.57633 | 38062 ft | 456 kts | 301° |
| 2026-04-28 20:10 | 45.04231 | 13.50023 | 38052 ft | 456 kts | 301° |
| 2026-04-28 20:11 | 45.07589 | 13.42409 | 38064 ft | 456 kts | 301° |
| 2026-04-28 20:11 | 45.10943 | 13.34785 | 38063 ft | 456 kts | 301° |
| 2026-04-28 20:12 | 45.14296 | 13.27141 | 38063 ft | 456 kts | 301° |
| 2026-04-28 20:12 | 45.17638 | 13.19502 | 38064 ft | 456 kts | 300° |
| 2026-04-28 20:13 | 45.20959 | 13.11889 | 38065 ft | 457 kts | 300° |
| 2026-04-28 20:13 | 45.24297 | 13.04218 | 38066 ft | 457 kts | 300° |
| 2026-04-28 20:14 | 45.27638 | 12.96528 | 38060 ft | 457 kts | 300° |
| 2026-04-28 20:14 | 45.30975 | 12.88866 | 38057 ft | 456 kts | 300° |
| 2026-04-28 20:15 | 45.34314 | 12.81188 | 38057 ft | 456 kts | 300° |
| 2026-04-28 20:15 | 45.37615 | 12.73570 | 38060 ft | 455 kts | 300° |
| 2026-04-28 20:16 | 45.40936 | 12.65882 | 38058 ft | 455 kts | 300° |
| 2026-04-28 20:16 | 45.44248 | 12.58194 | 38050 ft | 455 kts | 300° |
| 2026-04-28 20:17 | 45.47558 | 12.50488 | 38049 ft | 456 kts | 300° |
| 2026-04-28 20:17 | 45.50871 | 12.42756 | 38060 ft | 456 kts | 300° |
| 2026-04-28 20:18 | 45.54155 | 12.35068 | 38050 ft | 456 kts | 300° |
| 2026-04-28 20:18 | 45.57454 | 12.27326 | 38049 ft | 455 kts | 300° |
| 2026-04-28 20:19 | 45.60724 | 12.19630 | 38046 ft | 455 kts | 300° |
| 2026-04-28 20:19 | 45.64007 | 12.11881 | 38077 ft | 455 kts | 300° |
| 2026-04-28 20:20 | 45.67287 | 12.04119 | 38076 ft | 455 kts | 300° |
| 2026-04-28 20:20 | 45.70560 | 11.96353 | 38070 ft | 455 kts | 300° |
| 2026-04-28 20:21 | 45.73808 | 11.88622 | 38068 ft | 455 kts | 300° |
| 2026-04-28 20:21 | 45.77068 | 11.80843 | 38072 ft | 456 kts | 299° |
| 2026-04-28 20:22 | 45.80335 | 11.73026 | 38081 ft | 456 kts | 299° |
| 2026-04-28 20:22 | 45.83583 | 11.65231 | 38100 ft | 455 kts | 299° |
| 2026-04-28 20:23 | 45.86811 | 11.57462 | 38096 ft | 456 kts | 299° |
| 2026-04-28 20:23 | 45.90057 | 11.49628 | 38097 ft | 457 kts | 299° |
| 2026-04-28 20:24 | 45.93300 | 11.41778 | 38106 ft | 456 kts | 299° |
| 2026-04-28 20:24 | 45.96542 | 11.33912 | 38113 ft | 456 kts | 299° |
| 2026-04-28 20:25 | 45.99774 | 11.26045 | 38109 ft | 457 kts | 299° |
| 2026-04-28 20:25 | 46.03008 | 11.18155 | 38178 ft | 457 kts | 298° |
| 2026-04-28 20:26 | 46.06211 | 11.10238 | 38130 ft | 457 kts | 298° |
| 2026-04-28 20:26 | 46.09355 | 11.02356 | 38148 ft | 456 kts | 298° |
| 2026-04-28 20:27 | 46.12508 | 10.94425 | 38150 ft | 455 kts | 298° |
| 2026-04-28 20:27 | 46.15655 | 10.86507 | 38149 ft | 455 kts | 298° |
| 2026-04-28 20:28 | 46.18796 | 10.78580 | 38134 ft | 456 kts | 298° |
| 2026-04-28 20:28 | 46.21940 | 10.70626 | 38129 ft | 456 kts | 298° |
| 2026-04-28 20:29 | 46.25083 | 10.62653 | 38129 ft | 457 kts | 298° |
| 2026-04-28 20:29 | 46.28201 | 10.54717 | 38124 ft | 457 kts | 298° |
| 2026-04-28 20:30 | 46.31345 | 10.46690 | 38085 ft | 458 kts | 298° |
| 2026-04-28 20:30 | 46.34479 | 10.38669 | 38128 ft | 458 kts | 297° |
| 2026-04-28 20:31 | 46.37627 | 10.30585 | 38122 ft | 461 kts | 297° |
| 2026-04-28 20:31 | 46.40780 | 10.22467 | 38128 ft | 463 kts | 297° |
| 2026-04-28 20:32 | 46.43921 | 10.14358 | 38143 ft | 464 kts | 297° |
| 2026-04-28 20:32 | 46.47133 | 10.06226 | 38145 ft | 465 kts | 301° |
| 2026-04-28 20:33 | 46.51085 | 9.98736 | 38158 ft | 469 kts | 309° |
| 2026-04-28 20:33 | 46.55403 | 9.91728 | 38181 ft | 468 kts | 309° |
| 2026-04-28 20:34 | 46.59772 | 9.84613 | 38156 ft | 467 kts | 309° |
| 2026-04-28 20:34 | 46.64074 | 9.77535 | 38157 ft | 467 kts | 309° |
| 2026-04-28 20:35 | 46.68333 | 9.70483 | 38150 ft | 466 kts | 308° |
| 2026-04-28 20:35 | 46.72606 | 9.63385 | 38137 ft | 466 kts | 308° |
| 2026-04-28 20:36 | 46.76883 | 9.56267 | 38137 ft | 466 kts | 308° |
| 2026-04-28 20:36 | 46.81158 | 9.49135 | 38130 ft | 467 kts | 308° |
| 2026-04-28 20:37 | 46.84713 | 9.43190 | 38124 ft | 466 kts | 308° |
| 2026-04-28 20:37 | 46.89672 | 9.34871 | 38102 ft | 467 kts | 308° |
| 2026-04-28 20:38 | 46.93243 | 9.28869 | 38102 ft | 466 kts | 308° |
| 2026-04-28 20:38 | 46.98170 | 9.20568 | 38098 ft | 464 kts | 308° |
| 2026-04-28 20:39 | 47.01690 | 9.14616 | 38094 ft | 464 kts | 308° |
| 2026-04-28 20:39 | 47.05916 | 9.07454 | 38116 ft | 464 kts | 308° |
| 2026-04-28 20:40 | 47.10135 | 9.00287 | 38112 ft | 463 kts | 308° |
| 2026-04-28 20:40 | 47.14143 | 8.92899 | 38103 ft | 461 kts | 301° |
| 2026-04-28 20:41 | 47.17245 | 8.84668 | 38102 ft | 460 kts | 292° |
| 2026-04-28 20:41 | 47.19505 | 8.75880 | 38103 ft | 460 kts | 288° |
| 2026-04-28 20:42 | 47.21703 | 8.67020 | 38106 ft | 460 kts | 289° |
| 2026-04-28 20:42 | 47.23924 | 8.58252 | 38096 ft | 460 kts | 289° |
| 2026-04-28 20:43 | 47.26152 | 8.49408 | 38100 ft | 461 kts | 289° |
| 2026-04-28 20:43 | 47.28378 | 8.40562 | 38090 ft | 461 kts | 289° |
| 2026-04-28 20:44 | 47.30605 | 8.31692 | 38087 ft | 461 kts | 289° |
| 2026-04-28 20:44 | 47.32817 | 8.22848 | 38089 ft | 460 kts | 289° |
| 2026-04-28 20:45 | 47.35024 | 8.13983 | 38082 ft | 460 kts | 289° |
| 2026-04-28 20:45 | 47.37220 | 8.05130 | 38083 ft | 459 kts | 289° |
| 2026-04-28 20:46 | 47.39394 | 7.96329 | 38081 ft | 459 kts | 289° |
| 2026-04-28 20:46 | 47.41575 | 7.87469 | 38078 ft | 458 kts | 289° |
| 2026-04-28 20:47 | 47.43748 | 7.78601 | 38078 ft | 458 kts | 289° |
| 2026-04-28 20:47 | 47.45913 | 7.69740 | 38073 ft | 458 kts | 288° |
| 2026-04-28 20:48 | 47.47726 | 7.60743 | 38082 ft | 457 kts | 283° |
| 2026-04-28 20:48 | 47.49216 | 7.51652 | 38079 ft | 457 kts | 282° |
| 2026-04-28 20:49 | 47.50711 | 7.42499 | 38059 ft | 458 kts | 283° |
| 2026-04-28 20:49 | 47.52218 | 7.33341 | 38057 ft | 458 kts | 283° |
| 2026-04-28 20:50 | 47.53726 | 7.24169 | 38052 ft | 458 kts | 283° |
| 2026-04-28 20:50 | 47.55229 | 7.14985 | 38056 ft | 459 kts | 282° |
| 2026-04-28 20:51 | 47.56723 | 7.05799 | 38056 ft | 459 kts | 282° |
| 2026-04-28 20:51 | 47.58202 | 6.96654 | 38059 ft | 459 kts | 282° |
| 2026-04-28 20:52 | 47.59683 | 6.87451 | 38061 ft | 460 kts | 282° |
| 2026-04-28 20:52 | 47.61160 | 6.78212 | 38052 ft | 460 kts | 282° |
| 2026-04-28 20:53 | 47.63366 | 6.64321 | 38056 ft | 461 kts | 282° |
| 2026-04-28 20:53 | 47.64827 | 6.55064 | 38050 ft | 461 kts | 282° |
| 2026-04-28 20:54 | 47.66282 | 6.45785 | 38053 ft | 462 kts | 282° |
| 2026-04-28 20:54 | 47.67724 | 6.36546 | 38048 ft | 462 kts | 282° |
| 2026-04-28 20:55 | 47.69252 | 6.27283 | 38052 ft | 463 kts | 285° |
| 2026-04-28 20:55 | 47.71194 | 6.18145 | 38052 ft | 463 kts | 285° |
| 2026-04-28 20:56 | 47.73162 | 6.09022 | 38056 ft | 464 kts | 285° |
| 2026-04-28 20:56 | 47.75094 | 5.99932 | 38058 ft | 464 kts | 285° |
| 2026-04-28 20:57 | 47.77019 | 5.90775 | 38062 ft | 464 kts | 285° |
| 2026-04-28 20:57 | 47.78937 | 5.81599 | 38058 ft | 464 kts | 285° |
| 2026-04-28 20:58 | 47.80846 | 5.72424 | 38056 ft | 464 kts | 285° |
| 2026-04-28 20:58 | 47.82747 | 5.63250 | 38057 ft | 464 kts | 285° |
| 2026-04-28 20:59 | 47.84636 | 5.54097 | 38058 ft | 465 kts | 284° |
| 2026-04-28 20:59 | 47.86528 | 5.44879 | 38057 ft | 465 kts | 284° |
| 2026-04-28 21:00 | 47.88415 | 5.35651 | 38061 ft | 466 kts | 284° |
| 2026-04-28 21:00 | 47.90775 | 5.26643 | 38071 ft | 471 kts | 295° |
| 2026-04-28 21:01 | 47.94409 | 5.18419 | 38063 ft | 478 kts | 307° |
| 2026-04-28 21:01 | 47.98858 | 5.11091 | 38065 ft | 480 kts | 309° |
| 2026-04-28 21:02 | 48.03414 | 5.03753 | 38062 ft | 482 kts | 309° |
| 2026-04-28 21:02 | 48.07941 | 4.96332 | 38065 ft | 484 kts | 308° |
| 2026-04-28 21:03 | 48.12455 | 4.88846 | 38077 ft | 485 kts | 308° |
| 2026-04-28 21:03 | 48.16961 | 4.81344 | 38067 ft | 487 kts | 308° |
| 2026-04-28 21:04 | 48.21495 | 4.73785 | 38070 ft | 488 kts | 308° |
| 2026-04-28 21:04 | 48.26032 | 4.66199 | 38057 ft | 489 kts | 308° |
| 2026-04-28 21:05 | 48.30572 | 4.58579 | 38047 ft | 490 kts | 308° |
| 2026-04-28 21:05 | 48.35104 | 4.50926 | 38061 ft | 489 kts | 308° |
| 2026-04-28 21:06 | 48.39627 | 4.43265 | 38052 ft | 489 kts | 308° |
| 2026-04-28 21:06 | 48.44141 | 4.35601 | 38051 ft | 489 kts | 308° |
| 2026-04-28 21:07 | 48.48650 | 4.27922 | 38050 ft | 489 kts | 308° |
| 2026-04-28 21:07 | 48.53157 | 4.20225 | 38064 ft | 490 kts | 308° |
| 2026-04-28 21:08 | 48.57646 | 4.12535 | 38071 ft | 491 kts | 308° |
| 2026-04-28 21:08 | 48.62172 | 4.04759 | 38072 ft | 493 kts | 308° |
| 2026-04-28 21:09 | 48.66695 | 3.96967 | 38072 ft | 494 kts | 308° |
| 2026-04-28 21:09 | 48.71232 | 3.89129 | 38068 ft | 494 kts | 308° |
| 2026-04-28 21:10 | 48.76002 | 3.81588 | 38070 ft | 496 kts | 312° |
| 2026-04-28 21:10 | 48.80961 | 3.74290 | 38060 ft | 496 kts | 313° |
| 2026-04-28 21:11 | 48.85882 | 3.67041 | 38068 ft | 496 kts | 313° |
| 2026-04-28 21:11 | 48.90813 | 3.59696 | 38067 ft | 496 kts | 312° |
| 2026-04-28 21:12 | 48.95724 | 3.52330 | 38063 ft | 496 kts | 312° |
| 2026-04-28 21:12 | 49.00635 | 3.44937 | 38067 ft | 496 kts | 312° |
| 2026-04-28 21:13 | 49.05546 | 3.37525 | 38071 ft | 497 kts | 312° |
| 2026-04-28 21:13 | 49.10467 | 3.30081 | 38068 ft | 498 kts | 312° |
| 2026-04-28 21:14 | 49.15355 | 3.22664 | 38082 ft | 498 kts | 312° |
| 2026-04-28 21:14 | 49.20283 | 3.15164 | 38071 ft | 499 kts | 312° |
| 2026-04-28 21:15 | 49.25215 | 3.07637 | 38083 ft | 500 kts | 312° |
| 2026-04-28 21:15 | 49.30101 | 3.00151 | 38080 ft | 502 kts | 312° |
| 2026-04-28 21:16 | 49.35060 | 2.92538 | 38081 ft | 504 kts | 312° |
| 2026-04-28 21:16 | 49.40013 | 2.84910 | 38075 ft | 505 kts | 312° |
| 2026-04-28 21:17 | 49.44965 | 2.77261 | 38068 ft | 500 kts | 312° |
| 2026-04-28 21:17 | 49.47388 | 2.73513 | 38069 ft | 488 kts | 312° |
| 2026-04-28 21:17 | 49.49760 | 2.69835 | 38073 ft | 483 kts | 312° |
| 2026-04-28 21:18 | 49.54394 | 2.62621 | 38091 ft | 487 kts | 313° |
| 2026-04-28 21:18 | 49.58331 | 2.56489 | 38099 ft | 492 kts | 313° |
| 2026-04-28 21:19 | 49.62592 | 2.50467 | 38094 ft | 495 kts | 320° |
| 2026-04-28 21:19 | 49.68100 | 2.44031 | 38099 ft | 496 kts | 321° |
| 2026-04-28 21:20 | 49.73631 | 2.37657 | 38095 ft | 496 kts | 321° |
| 2026-04-28 21:20 | 49.79123 | 2.31224 | 38108 ft | 493 kts | 321° |
| 2026-04-28 21:21 | 49.84568 | 2.24788 | 38117 ft | 491 kts | 321° |
| 2026-04-28 21:21 | 49.89963 | 2.18381 | 38120 ft | 491 kts | 321° |
| 2026-04-28 21:22 | 49.95384 | 2.11930 | 38113 ft | 491 kts | 321° |
| 2026-04-28 21:22 | 49.99885 | 2.06560 | 38134 ft | 491 kts | 321° |
| 2026-04-28 21:23 | 50.06249 | 1.98946 | 38113 ft | 495 kts | 321° |
| 2026-04-28 21:23 | 50.11686 | 1.92420 | 38134 ft | 498 kts | 322° |
| 2026-04-28 21:24 | 50.17160 | 1.85767 | 38143 ft | 499 kts | 319° |
| 2026-04-28 21:24 | 50.22202 | 1.78342 | 38129 ft | 499 kts | 315° |
| 2026-04-28 21:25 | 50.26309 | 1.71978 | 38157 ft | 497 kts | 315° |
| 2026-04-28 21:25 | 50.31258 | 1.64345 | 37516 ft | 508 kts | 316° |
| 2026-04-28 21:26 | 50.33789 | 1.60464 | 36824 ft | 509 kts | 316° |
| 2026-04-28 21:26 | 50.36310 | 1.56602 | 36203 ft | 504 kts | 316° |
| 2026-04-28 21:26 | 50.38796 | 1.52790 | 35737 ft | 496 kts | 316° |
| 2026-04-28 21:26 | 50.41257 | 1.49009 | 34951 ft | 496 kts | 316° |
| 2026-04-28 21:27 | 50.43730 | 1.45201 | 34068 ft | 498 kts | 317° |
| 2026-04-28 21:27 | 50.46197 | 1.41397 | 33151 ft | 498 kts | 317° |
| 2026-04-28 21:27 | 50.48675 | 1.37572 | 32062 ft | 501 kts | 318° |
| 2026-04-28 21:27 | 50.51156 | 1.33646 | 30795 ft | 510 kts | 316° |
| 2026-04-28 21:28 | 50.53560 | 1.29513 | 29803 ft | 511 kts | 314° |
| 2026-04-28 21:28 | 50.55894 | 1.25435 | 29073 ft | 504 kts | 315° |
| 2026-04-28 21:28 | 50.58239 | 1.21402 | 28455 ft | 495 kts | 315° |
| 2026-04-28 21:28 | 50.60611 | 1.17536 | 27837 ft | 487 kts | 317° |
| 2026-04-28 21:29 | 50.63003 | 1.13790 | 27128 ft | 483 kts | 318° |
| 2026-04-28 21:29 | 50.65389 | 1.10093 | 26392 ft | 479 kts | 318° |
| 2026-04-28 21:29 | 50.67750 | 1.06421 | 25729 ft | 475 kts | 318° |
| 2026-04-28 21:29 | 50.70086 | 1.02754 | 25144 ft | 470 kts | 318° |
| 2026-04-28 21:30 | 50.72379 | 0.99127 | 24552 ft | 465 kts | 317° |
| 2026-04-28 21:30 | 50.74657 | 0.95504 | 23947 ft | 461 kts | 317° |
| 2026-04-28 21:30 | 50.76905 | 0.91919 | 23223 ft | 459 kts | 317° |
| 2026-04-28 21:30 | 50.79153 | 0.88330 | 22428 ft | 458 kts | 317° |
| 2026-04-28 21:31 | 50.81384 | 0.84764 | 21768 ft | 454 kts | 317° |
| 2026-04-28 21:31 | 50.83565 | 0.81275 | 21217 ft | 448 kts | 317° |
| 2026-04-28 21:31 | 50.85742 | 0.77785 | 20644 ft | 444 kts | 317° |
| 2026-04-28 21:31 | 50.87900 | 0.74324 | 20041 ft | 440 kts | 317° |
| 2026-04-28 21:32 | 50.90045 | 0.70875 | 19491 ft | 436 kts | 317° |
| 2026-04-28 21:32 | 50.92163 | 0.67470 | 18964 ft | 433 kts | 317° |
| 2026-04-28 21:32 | 50.94271 | 0.64078 | 18406 ft | 429 kts | 317° |
| 2026-04-28 21:32 | 50.96358 | 0.60714 | 17798 ft | 426 kts | 316° |
| 2026-04-28 21:33 | 50.98428 | 0.57369 | 17201 ft | 423 kts | 316° |
| 2026-04-28 21:33 | 51.00485 | 0.54041 | 16612 ft | 420 kts | 316° |
| 2026-04-28 21:33 | 51.02525 | 0.50738 | 16045 ft | 417 kts | 316° |
| 2026-04-28 21:33 | 51.04554 | 0.47449 | 15491 ft | 415 kts | 316° |
| 2026-04-28 21:34 | 51.06562 | 0.44188 | 15118 ft | 408 kts | 316° |
| 2026-04-28 21:34 | 51.08524 | 0.41083 | 15036 ft | 392 kts | 318° |
| 2026-04-28 21:34 | 51.10471 | 0.38131 | 14949 ft | 378 kts | 319° |
| 2026-04-28 21:34 | 51.12328 | 0.35339 | 14862 ft | 365 kts | 319° |
| 2026-04-28 21:35 | 51.14138 | 0.32605 | 14787 ft | 353 kts | 319° |
| 2026-04-28 21:35 | 51.15883 | 0.29946 | 14694 ft | 341 kts | 319° |
| 2026-04-28 21:35 | 51.17567 | 0.27370 | 14561 ft | 331 kts | 319° |
| 2026-04-28 21:35 | 51.19215 | 0.24844 | 14393 ft | 324 kts | 319° |
| 2026-04-28 21:36 | 51.20832 | 0.22364 | 14098 ft | 320 kts | 319° |
| 2026-04-28 21:36 | 51.22435 | 0.19904 | 13726 ft | 319 kts | 319° |
| 2026-04-28 21:36 | 51.23933 | 0.17361 | 13312 ft | 317 kts | 305° |
| 2026-04-28 21:36 | 51.24811 | 0.14126 | 12862 ft | 318 kts | 283° |
| 2026-04-28 21:37 | 51.25208 | 0.10661 | 12540 ft | 315 kts | 277° |
| 2026-04-28 21:37 | 51.25503 | 0.07216 | 12218 ft | 312 kts | 276° |